Time;durP1;ratioP1;P1;durP2;ratioP2;P2;SDS_P1;SDS_P2;PMS_P1;PMS_P2;Temp;Humidity;BMP_temperature;BMP_pressure;BME280_temperature;BME280_humidity;BME280_pressure;Samples;Min_cycle;Max_cycle;Signal;HPM_P1;HPM_P2
2022/12/19 00:00:16;;;;;;;42.92;21.92;;;;;;;;;;5048408;28;20042;-74
2022/12/19 00:03:01;;;;;;;42.47;24.27;;;;;;;;;;5050628;28;20162;-73
2022/12/19 00:05:46;;;;;;;40.53;20.92;;;;;;;;;;5048136;28;20362;-74
2022/12/19 00:08:32;;;;;;;51.22;23.65;;;;;;;;;;5050119;28;20712;-76
2022/12/19 00:11:18;;;;;;;46.67;23.00;;;;;;;;;;5038592;28;20026;-79
2022/12/19 00:14:04;;;;;;;46.83;21.55;;;;;;;;;;5052537;28;20021;-79
2022/12/19 00:16:49;;;;;;;44.88;22.65;;;;;;;;;;5039038;28;20032;-78
2022/12/19 00:19:34;;;;;;;41.25;22.45;;;;;;;;;;5038345;28;20024;-78
2022/12/19 00:22:20;;;;;;;46.33;21.88;;;;;;;;;;5038343;28;20037;-79
2022/12/19 00:25:05;;;;;;;39.28;20.58;;;;;;;;;;5048971;28;20040;-73
2022/12/19 00:27:50;;;;;;;44.97;21.42;;;;;;;;;;5050143;28;20028;-71
2022/12/19 00:30:36;;;;;;;44.55;21.42;;;;;;;;;;5051557;28;20398;-71
2022/12/19 00:33:21;;;;;;;42.88;21.98;;;;;;;;;;5049051;28;20541;-74
2022/12/19 00:36:09;;;;;;;46.25;22.77;;;;;;;;;;5048340;28;20033;-71
2022/12/19 00:38:56;;;;;;;46.75;21.42;;;;;;;;;;5049259;28;20060;-70
2022/12/19 00:41:41;;;;;;;44.03;23.70;;;;;;;;;;5051204;28;20533;-69
2022/12/19 00:44:26;;;;;;;47.40;24.15;;;;;;;;;;5038216;28;20047;-73
2022/12/19 00:47:12;;;;;;;40.47;20.58;;;;;;;;;;5038881;28;20042;-71
2022/12/19 00:49:57;;;;;;;48.05;21.95;;;;;;;;;;5050461;28;20039;-69
2022/12/19 00:52:42;;;;;;;45.28;23.42;;;;;;;;;;5047552;28;20337;-73
2022/12/19 00:55:27;;;;;;;38.88;20.58;;;;;;;;;;5044076;28;20036;-72
2022/12/19 00:58:13;;;;;;;41.92;21.63;;;;;;;;;;5050546;28;20042;-71
2022/12/19 01:00:58;;;;;;;43.45;23.35;;;;;;;;;;5049504;28;20040;-69
2022/12/19 01:03:43;;;;;;;38.22;20.80;;;;;;;;;;5049518;28;20021;-72
2022/12/19 01:06:29;;;;;;;47.22;24.83;;;;;;;;;;5049423;28;20098;-80
2022/12/19 01:09:14;;;;;;;45.45;23.85;;;;;;;;;;5050745;28;20039;-80
2022/12/19 01:15:03;;;;;;;44.72;22.73;;;;;;;;;;5050235;28;20270;-78
2022/12/19 01:17:49;;;;;;;41.10;23.08;;;;;;;;;;5036379;28;20062;-79
2022/12/19 01:20:36;;;;;;;44.75;22.58;;;;;;;;;;5038662;28;20102;-70
2022/12/19 01:23:21;;;;;;;40.67;21.83;;;;;;;;;;5059908;28;20128;-76
2022/12/19 01:26:07;;;;;;;48.08;21.75;;;;;;;;;;5034206;28;20046;-71
2022/12/19 01:28:52;;;;;;;47.00;22.58;;;;;;;;;;5046314;28;20025;-75
2022/12/19 01:31:37;;;;;;;41.22;21.00;;;;;;;;;;5048479;28;20379;-72
2022/12/19 01:34:23;;;;;;;40.33;20.42;;;;;;;;;;5048728;28;20104;-72
2022/12/19 01:37:08;;;;;;;49.92;23.50;;;;;;;;;;5038678;28;20047;-72
2022/12/19 01:39:53;;;;;;;39.30;21.67;;;;;;;;;;5050854;28;20036;-72
2022/12/19 01:42:38;;;;;;;41.08;21.52;;;;;;;;;;5037316;28;20024;-79
2022/12/19 01:45:24;;;;;;;41.58;21.10;;;;;;;;;;5049795;28;20048;-78
2022/12/19 01:48:32;;;;;;;42.42;19.95;;;;;;;;;;5051273;28;20032;-77
2022/12/19 01:51:31;;;;;;;49.15;22.83;;;;;;;;;;5049324;28;20032;-79
2022/12/19 01:54:19;;;;;;;40.72;22.52;;;;;;;;;;5048243;28;20036;-80
2022/12/19 01:57:06;;;;;;;42.90;21.50;;;;;;;;;;5048517;28;20067;-71
2022/12/19 01:59:54;;;;;;;43.28;22.50;;;;;;;;;;5045881;28;20090;-79
2022/12/19 02:02:55;;;;;;;47.33;22.20;;;;;;;;;;5050806;28;20032;-77
2022/12/19 02:05:42;;;;;;;41.15;21.23;;;;;;;;;;5046347;28;20119;-80
2022/12/19 02:08:27;;;;;;;45.10;20.80;;;;;;;;;;5046303;28;20032;-79
2022/12/19 02:11:13;;;;;;;41.53;20.95;;;;;;;;;;5034377;28;20039;-79
2022/12/19 02:13:58;;;;;;;39.88;20.88;;;;;;;;;;5037089;28;20028;-78
2022/12/19 02:16:53;;;;;;;43.13;21.02;;;;;;;;;;5045471;28;20543;-70
2022/12/19 02:20:04;;;;;;;44.45;21.23;;;;;;;;;;5030498;28;20451;-74
2022/12/19 02:23:13;;;;;;;47.00;24.17;;;;;;;;;;5047126;28;20387;-73
2022/12/19 02:26:04;;;;;;;46.30;23.25;;;;;;;;;;5049550;28;20147;-73
2022/12/19 02:29:17;;;;;;;41.10;21.55;;;;;;;;;;5048767;28;20036;-72
2022/12/19 02:32:09;;;;;;;46.38;22.65;;;;;;;;;;5045647;28;20315;-75
2022/12/19 02:35:06;;;;;;;44.33;21.38;;;;;;;;;;5046297;28;20115;-71
2022/12/19 02:38:00;;;;;;;44.83;23.63;;;;;;;;;;5046408;28;20028;-71
2022/12/19 02:40:49;;;;;;;44.53;23.40;;;;;;;;;;5034703;28;20090;-72
2022/12/19 02:43:37;;;;;;;43.47;22.10;;;;;;;;;;5049831;28;20131;-69
2022/12/19 02:46:23;;;;;;;42.22;22.85;;;;;;;;;;5041106;28;20681;-71
2022/12/19 02:49:08;;;;;;;43.42;23.55;;;;;;;;;;5050168;28;20540;-70
2022/12/19 02:51:53;;;;;;;45.05;23.55;;;;;;;;;;5047832;28;20495;-70
2022/12/19 02:54:39;;;;;;;44.83;22.92;;;;;;;;;;5051127;28;20052;-76
2022/12/19 02:57:47;;;;;;;42.45;23.20;;;;;;;;;;5048144;28;20045;-81
2022/12/19 03:00:37;;;;;;;43.75;24.23;;;;;;;;;;5047340;28;20151;-79
2022/12/19 03:03:29;;;;;;;50.38;22.55;;;;;;;;;;5063082;28;20545;-79
2022/12/19 03:06:23;;;;;;;40.45;21.30;;;;;;;;;;5048516;28;20111;-78
2022/12/19 03:09:18;;;;;;;42.47;23.05;;;;;;;;;;5054570;28;20579;-78
2022/12/19 03:12:10;;;;;;;40.38;22.13;;;;;;;;;;5054712;28;20113;-71
2022/12/19 03:14:56;;;;;;;48.97;24.52;;;;;;;;;;5048787;28;20032;-68
2022/12/19 03:17:41;;;;;;;41.97;22.30;;;;;;;;;;5035809;28;20467;-71
2022/12/19 03:20:33;;;;;;;42.83;22.20;;;;;;;;;;5050843;28;20127;-72
2022/12/19 03:23:18;;;;;;;39.92;20.50;;;;;;;;;;5037891;28;20125;-71
2022/12/19 03:26:05;;;;;;;44.40;24.33;;;;;;;;;;5036343;28;20516;-74
2022/12/19 03:29:14;;;;;;;45.17;23.55;;;;;;;;;;5040682;28;20020;-74
2022/12/19 03:32:02;;;;;;;43.67;21.63;;;;;;;;;;5034706;28;20043;-80
2022/12/19 03:35:02;;;;;;;40.53;20.88;;;;;;;;;;5040208;28;20472;-81
2022/12/19 03:37:49;;;;;;;42.05;20.92;;;;;;;;;;5068825;28;20028;-82
2022/12/19 03:40:35;;;;;;;48.58;21.77;;;;;;;;;;5045983;28;20033;-81
2022/12/19 03:43:22;;;;;;;41.30;21.17;;;;;;;;;;5036193;28;20120;-82
2022/12/19 03:46:15;;;;;;;45.38;22.15;;;;;;;;;;5052973;28;20041;-81
2022/12/19 03:49:00;;;;;;;40.97;22.13;;;;;;;;;;5051532;28;20490;-70
2022/12/19 03:51:55;;;;;;;41.50;21.17;;;;;;;;;;5036714;28;20091;-77
2022/12/19 03:54:43;;;;;;;39.22;20.98;;;;;;;;;;5048251;28;20518;-76
2022/12/19 03:57:38;;;;;;;40.90;22.25;;;;;;;;;;5037858;28;20463;-78
2022/12/19 04:00:24;;;;;;;45.33;22.60;;;;;;;;;;5053992;28;20032;-78
2022/12/19 04:03:10;;;;;;;40.72;21.85;;;;;;;;;;5054886;28;20024;-77
2022/12/19 04:05:56;;;;;;;40.35;21.15;;;;;;;;;;5052622;28;20039;-75
2022/12/19 04:08:41;;;;;;;43.95;22.13;;;;;;;;;;5035111;28;20123;-76
2022/12/19 04:11:29;;;;;;;38.55;20.40;;;;;;;;;;5052720;28;20060;-77
2022/12/19 04:14:31;;;;;;;38.97;20.42;;;;;;;;;;5054960;28;20020;-76
2022/12/19 04:17:23;;;;;;;38.67;20.90;;;;;;;;;;5053662;28;20024;-76
2022/12/19 04:20:10;;;;;;;39.30;20.02;;;;;;;;;;5069710;28;20033;-75
2022/12/19 04:23:00;;;;;;;36.30;18.85;;;;;;;;;;5055705;28;20024;-75
2022/12/19 04:25:47;;;;;;;41.92;21.60;;;;;;;;;;5041161;28;20052;-71
2022/12/19 04:28:59;;;;;;;36.95;20.55;;;;;;;;;;5053090;28;20068;-78
2022/12/19 04:31:44;;;;;;;37.42;20.33;;;;;;;;;;5052016;28;20483;-77
2022/12/19 04:34:30;;;;;;;44.22;22.08;;;;;;;;;;5054784;28;20044;-78
2022/12/19 04:37:15;;;;;;;41.42;21.75;;;;;;;;;;5051886;28;20074;-76
2022/12/19 04:40:00;;;;;;;36.28;20.08;;;;;;;;;;5048251;28;20233;-78
2022/12/19 04:42:46;;;;;;;42.25;21.40;;;;;;;;;;5051552;28;20026;-77
2022/12/19 04:45:31;;;;;;;38.58;20.88;;;;;;;;;;5049293;28;20041;-69
2022/12/19 04:48:16;;;;;;;39.38;20.33;;;;;;;;;;5053254;28;20017;-70
2022/12/19 04:51:02;;;;;;;41.25;20.73;;;;;;;;;;5037859;28;20028;-70
2022/12/19 04:53:47;;;;;;;38.88;19.95;;;;;;;;;;5050042;28;20033;-68
2022/12/19 04:56:32;;;;;;;43.83;21.95;;;;;;;;;;5055817;28;20055;-70
2022/12/19 04:59:17;;;;;;;39.40;21.35;;;;;;;;;;5053323;28;20032;-72
2022/12/19 05:02:06;;;;;;;42.75;21.90;;;;;;;;;;5055905;28;20098;-69
2022/12/19 05:04:51;;;;;;;38.03;19.55;;;;;;;;;;5041055;28;20048;-74
2022/12/19 05:07:36;;;;;;;44.63;21.75;;;;;;;;;;5054719;28;20740;-71
2022/12/19 05:10:21;;;;;;;40.83;21.92;;;;;;;;;;5053647;28;20036;-70
2022/12/19 05:13:08;;;;;;;41.83;23.08;;;;;;;;;;5048281;28;20028;-70
2022/12/19 05:16:01;;;;;;;44.15;22.50;;;;;;;;;;5049873;28;20086;-75
2022/12/19 05:18:46;;;;;;;36.03;19.13;;;;;;;;;;5038595;28;20475;-76
2022/12/19 05:21:31;;;;;;;38.75;21.02;;;;;;;;;;5052901;28;20044;-75
2022/12/19 05:24:16;;;;;;;38.90;20.20;;;;;;;;;;5053160;28;20089;-70
2022/12/19 05:27:02;;;;;;;40.75;22.05;;;;;;;;;;5050312;28;20176;-71
2022/12/19 05:29:47;;;;;;;35.60;20.23;;;;;;;;;;5054250;28;20047;-71
2022/12/19 05:32:33;;;;;;;39.75;20.60;;;;;;;;;;5046582;28;20048;-73
2022/12/19 05:35:18;;;;;;;42.60;21.13;;;;;;;;;;5053441;28;20032;-70
2022/12/19 05:38:04;;;;;;;39.55;20.05;;;;;;;;;;5061675;28;20483;-70
2022/12/19 05:40:49;;;;;;;39.85;20.65;;;;;;;;;;5051882;28;20077;-70
2022/12/19 05:43:34;;;;;;;38.72;21.55;;;;;;;;;;5048454;28;20544;-72
2022/12/19 05:46:20;;;;;;;35.42;20.00;;;;;;;;;;5050112;28;20044;-71
2022/12/19 05:49:05;;;;;;;41.42;19.05;;;;;;;;;;5053727;28;20036;-70
2022/12/19 05:51:50;;;;;;;43.90;21.70;;;;;;;;;;5045417;28;20140;-71
2022/12/19 05:54:36;;;;;;;41.55;20.40;;;;;;;;;;5037601;28;20024;-71
2022/12/19 05:57:21;;;;;;;40.42;20.45;;;;;;;;;;5046957;28;20029;-73
2022/12/19 06:00:06;;;;;;;43.72;20.50;;;;;;;;;;5060457;28;20318;-76
2022/12/19 06:02:52;;;;;;;41.10;21.10;;;;;;;;;;5046936;28;20127;-78
2022/12/19 06:05:37;;;;;;;35.58;18.58;;;;;;;;;;5047612;28;20067;-78
2022/12/19 06:08:23;;;;;;;36.45;18.40;;;;;;;;;;5046802;28;20611;-78
2022/12/19 06:11:09;;;;;;;40.35;20.45;;;;;;;;;;5049487;28;20208;-79
2022/12/19 06:13:54;;;;;;;37.22;19.23;;;;;;;;;;5045385;28;20084;-73
2022/12/19 06:16:40;;;;;;;36.28;19.10;;;;;;;;;;5029028;28;20546;-72
2022/12/19 06:19:25;;;;;;;35.22;19.98;;;;;;;;;;5049260;28;20029;-78
2022/12/19 06:22:10;;;;;;;36.70;19.65;;;;;;;;;;5049228;28;20039;-76
2022/12/19 06:24:55;;;;;;;37.58;20.27;;;;;;;;;;5049650;28;20394;-76
2022/12/19 06:27:40;;;;;;;46.83;20.90;;;;;;;;;;5048661;28;20036;-77
2022/12/19 06:30:26;;;;;;;37.40;18.58;;;;;;;;;;5041209;28;20044;-76
2022/12/19 06:33:11;;;;;;;38.33;21.38;;;;;;;;;;5046348;28;20030;-71
2022/12/19 06:36:04;;;;;;;35.20;19.33;;;;;;;;;;5046524;28;20379;-73
2022/12/19 06:38:49;;;;;;;45.25;22.35;;;;;;;;;;5047656;28;20097;-73
2022/12/19 06:44:42;;;;;;;36.45;20.10;;;;;;;;;;5047847;28;20408;-76
2022/12/19 06:47:27;;;;;;;34.23;19.40;;;;;;;;;;5044521;28;20395;-72
2022/12/19 06:50:12;;;;;;;37.28;18.70;;;;;;;;;;5046666;28;20044;-74
2022/12/19 06:52:58;;;;;;;37.47;18.58;;;;;;;;;;5042417;28;20037;-73
2022/12/19 06:55:45;;;;;;;38.35;19.27;;;;;;;;;;5048763;28;20219;-72
2022/12/19 06:58:31;;;;;;;36.08;18.75;;;;;;;;;;5045823;28;20090;-71
2022/12/19 07:01:18;;;;;;;43.05;19.92;;;;;;;;;;5047869;28;20032;-71
2022/12/19 07:04:03;;;;;;;38.25;17.95;;;;;;;;;;5052286;28;20047;-70
2022/12/19 07:06:48;;;;;;;35.15;18.38;;;;;;;;;;5044885;28;20043;-70
2022/12/19 07:09:34;;;;;;;39.67;19.15;;;;;;;;;;5048893;28;20032;-71
2022/12/19 07:12:19;;;;;;;33.60;17.83;;;;;;;;;;5041967;28;20032;-73
2022/12/19 07:15:04;;;;;;;37.75;19.02;;;;;;;;;;5050462;28;20032;-71
2022/12/19 07:17:50;;;;;;;35.10;18.48;;;;;;;;;;5051381;28;20024;-70
2022/12/19 07:20:36;;;;;;;32.85;16.23;;;;;;;;;;5051561;28;20036;-70
2022/12/19 07:23:21;;;;;;;37.20;17.67;;;;;;;;;;5049892;28;20028;-72
2022/12/19 07:26:07;;;;;;;38.03;18.63;;;;;;;;;;5052799;28;20047;-70
2022/12/19 07:28:52;;;;;;;38.28;17.92;;;;;;;;;;5052756;28;20056;-76
2022/12/19 07:31:38;;;;;;;36.20;16.65;;;;;;;;;;5051303;28;20028;-73
2022/12/19 07:34:23;;;;;;;38.88;19.50;;;;;;;;;;5052814;28;20046;-73
2022/12/19 07:37:11;;;;;;;42.85;19.58;;;;;;;;;;5052892;28;20552;-72
2022/12/19 07:39:56;;;;;;;39.95;18.17;;;;;;;;;;5037251;28;20023;-72
2022/12/19 07:42:41;;;;;;;37.03;18.80;;;;;;;;;;5051967;28;20102;-72
2022/12/19 07:45:27;;;;;;;32.75;16.98;;;;;;;;;;5051530;28;20024;-76
2022/12/19 07:48:12;;;;;;;30.38;16.80;;;;;;;;;;5039644;28;20039;-73
2022/12/19 07:50:57;;;;;;;35.45;18.17;;;;;;;;;;5053477;28;20039;-72
2022/12/19 07:53:42;;;;;;;36.28;17.83;;;;;;;;;;5054605;28;20032;-72
2022/12/19 07:56:28;;;;;;;38.13;19.08;;;;;;;;;;5053083;28;20112;-71
2022/12/19 07:59:13;;;;;;;35.33;17.23;;;;;;;;;;5054150;28;20032;-73
2022/12/19 08:01:58;;;;;;;37.83;17.70;;;;;;;;;;5055614;28;20330;-72
2022/12/19 08:04:43;;;;;;;30.23;16.83;;;;;;;;;;5047669;28;20083;-69
2022/12/19 08:07:29;;;;;;;32.17;16.55;;;;;;;;;;5054738;28;20036;-70
2022/12/19 08:10:14;;;;;;;33.00;16.35;;;;;;;;;;5049674;28;20053;-70
2022/12/19 08:12:59;;;;;;;30.50;16.85;;;;;;;;;;5054916;28;20097;-71
2022/12/19 08:15:45;;;;;;;37.00;17.10;;;;;;;;;;5055513;28;20037;-73
2022/12/19 08:18:30;;;;;;;37.20;17.50;;;;;;;;;;5053126;28;20021;-71
2022/12/19 08:21:15;;;;;;;38.55;17.27;;;;;;;;;;5055437;28;20479;-72
2022/12/19 08:24:01;;;;;;;35.13;16.63;;;;;;;;;;5049481;28;20422;-72
2022/12/19 08:26:46;;;;;;;39.90;17.40;;;;;;;;;;5052689;28;20112;-70
2022/12/19 08:29:31;;;;;;;32.10;16.88;;;;;;;;;;5054475;28;20064;-70
2022/12/19 08:32:16;;;;;;;38.95;17.05;;;;;;;;;;5048991;28;21017;-71
2022/12/19 08:35:02;;;;;;;39.63;18.05;;;;;;;;;;5039551;28;20273;-71
2022/12/19 08:37:47;;;;;;;41.03;17.83;;;;;;;;;;5054415;28;20245;-70
2022/12/19 08:40:32;;;;;;;33.70;18.35;;;;;;;;;;5054805;28;20074;-72
2022/12/19 08:43:18;;;;;;;30.90;16.50;;;;;;;;;;5051966;28;20044;-76
2022/12/19 08:46:04;;;;;;;33.22;16.60;;;;;;;;;;5040752;28;20119;-70
2022/12/19 08:48:49;;;;;;;35.97;16.50;;;;;;;;;;5048431;28;20465;-71
2022/12/19 08:51:34;;;;;;;31.58;15.38;;;;;;;;;;5054393;28;20039;-71
2022/12/19 08:54:20;;;;;;;34.58;18.15;;;;;;;;;;5050805;28;20028;-69
2022/12/19 08:57:05;;;;;;;39.42;19.33;;;;;;;;;;5053741;28;20024;-71
2022/12/19 08:59:50;;;;;;;32.38;17.55;;;;;;;;;;5053219;28;20040;-74
2022/12/19 09:02:35;;;;;;;33.50;16.77;;;;;;;;;;5054031;28;20038;-70
2022/12/19 09:05:20;;;;;;;34.75;16.55;;;;;;;;;;5055190;28;20028;-70
2022/12/19 09:08:06;;;;;;;34.55;18.33;;;;;;;;;;5038325;28;20082;-71
2022/12/19 09:10:58;;;;;;;30.98;17.20;;;;;;;;;;5056537;28;20029;-70
2022/12/19 09:13:44;;;;;;;32.40;16.65;;;;;;;;;;5053779;28;20033;-72
2022/12/19 09:16:29;;;;;;;34.80;18.05;;;;;;;;;;5049647;28;20031;-71
2022/12/19 09:19:15;;;;;;;34.55;17.45;;;;;;;;;;5052045;28;20031;-78
2022/12/19 09:22:00;;;;;;;34.17;17.95;;;;;;;;;;5077463;23;20661;-81
2022/12/19 09:24:46;;;;;;;36.78;17.85;;;;;;;;;;5064197;28;20040;-78
2022/12/19 09:27:31;;;;;;;31.98;16.10;;;;;;;;;;5060035;28;20044;-79
2022/12/19 09:30:16;;;;;;;38.15;16.63;;;;;;;;;;5062009;28;20071;-79
2022/12/19 09:33:01;;;;;;;38.33;17.15;;;;;;;;;;5062344;28;20028;-80
2022/12/19 09:35:51;;;;;;;31.42;14.55;;;;;;;;;;5047743;28;20050;-79
2022/12/19 09:38:36;;;;;;;31.52;15.52;;;;;;;;;;5062045;28;20039;-80
2022/12/19 09:41:21;;;;;;;29.20;16.15;;;;;;;;;;5061562;28;20032;-78
2022/12/19 09:44:15;;;;;;;34.10;16.65;;;;;;;;;;5047823;28;20072;-79
2022/12/19 09:47:02;;;;;;;30.02;15.35;;;;;;;;;;5059693;28;20110;-80
2022/12/19 09:49:47;;;;;;;29.55;15.30;;;;;;;;;;5061576;28;20119;-79
2022/12/19 09:52:41;;;;;;;26.63;13.88;;;;;;;;;;5062384;28;20032;-79
2022/12/19 09:55:30;;;;;;;29.20;14.48;;;;;;;;;;5065500;28;20377;-79
2022/12/19 09:58:15;;;;;;;31.53;14.83;;;;;;;;;;5061374;28;20040;-79
2022/12/19 10:01:03;;;;;;;29.02;14.02;;;;;;;;;;5075793;28;20028;-79
2022/12/19 10:03:57;;;;;;;30.02;16.33;;;;;;;;;;5074999;28;20044;-79
2022/12/19 10:06:42;;;;;;;28.15;14.85;;;;;;;;;;5076216;28;20044;-79
2022/12/19 10:09:33;;;;;;;29.13;14.65;;;;;;;;;;5075163;28;20039;-79
2022/12/19 10:12:34;;;;;;;26.45;14.75;;;;;;;;;;5074095;28;20356;-79
2022/12/19 10:15:32;;;;;;;28.90;15.20;;;;;;;;;;5075342;28;20037;-77
2022/12/19 10:18:36;;;;;;;27.55;14.35;;;;;;;;;;5075413;28;20447;-78
2022/12/19 10:21:41;;;;;;;24.35;13.75;;;;;;;;;;5074611;28;20029;-78
2022/12/19 10:24:32;;;;;;;28.23;12.82;;;;;;;;;;5074704;28;20033;-76
2022/12/19 10:27:34;;;;;;;26.92;15.18;;;;;;;;;;5078405;28;20036;-78
2022/12/19 10:30:21;;;;;;;25.60;13.63;;;;;;;;;;5075579;28;20025;-77
2022/12/19 10:33:17;;;;;;;27.88;15.10;;;;;;;;;;5073476;28;20025;-85
2022/12/19 10:36:07;;;;;;;22.65;12.38;;;;;;;;;;5075256;28;20059;-76
2022/12/19 10:38:53;;;;;;;24.98;13.55;;;;;;;;;;5074633;28;20115;-76
2022/12/19 10:41:40;;;;;;;24.45;13.80;;;;;;;;;;5075790;28;20032;-76
2022/12/19 10:44:27;;;;;;;22.98;12.27;;;;;;;;;;5075327;28;20097;-76
2022/12/19 10:47:14;;;;;;;23.10;12.80;;;;;;;;;;5085807;28;20076;-76
2022/12/19 10:50:00;;;;;;;20.52;12.27;;;;;;;;;;5077596;28;20024;-73
2022/12/19 10:52:51;;;;;;;25.27;12.80;;;;;;;;;;5076480;28;20024;-69
2022/12/19 10:55:37;;;;;;;25.20;12.35;;;;;;;;;;5073682;28;20036;-68
2022/12/19 10:58:24;;;;;;;22.85;11.90;;;;;;;;;;5074434;28;20032;-69
2022/12/19 11:01:09;;;;;;;21.27;11.63;;;;;;;;;;5078962;28;20097;-68
2022/12/19 11:04:14;;;;;;;23.25;12.38;;;;;;;;;;5056689;28;20024;-69
2022/12/19 11:06:59;;;;;;;23.42;12.95;;;;;;;;;;5076007;28;20079;-68
2022/12/19 11:09:45;;;;;;;24.70;12.75;;;;;;;;;;5074194;28;20526;-68
2022/12/19 11:12:31;;;;;;;29.17;12.88;;;;;;;;;;5074075;28;20036;-73
2022/12/19 11:15:17;;;;;;;20.20;10.85;;;;;;;;;;5075821;28;20062;-74
2022/12/19 11:18:06;;;;;;;20.15;10.52;;;;;;;;;;5073476;28;20032;-73
2022/12/19 11:20:52;;;;;;;;;;;;;;;;;;5059800;28;20029;-73
2022/12/19 11:23:49;;;;;;;20.70;11.05;;;;;;;;;;5076771;28;19912;-73
2022/12/19 11:26:42;;;;;;;20.63;12.25;;;;;;;;;;5077704;28;20040;-77
2022/12/19 11:29:34;;;;;;;21.00;11.30;;;;;;;;;;5078040;28;20032;-72
2022/12/19 11:32:38;;;;;;;18.52;10.55;;;;;;;;;;5067803;28;20483;-75
2022/12/19 11:35:25;;;;;;;20.33;10.82;;;;;;;;;;5077753;28;20039;-75
2022/12/19 11:38:13;;;;;;;20.40;11.32;;;;;;;;;;5080005;28;20051;-75
2022/12/19 11:41:02;;;;;;;20.17;10.93;;;;;;;;;;5077040;28;20370;-75
2022/12/19 11:44:02;;;;;;;22.63;10.95;;;;;;;;;;5076831;28;20036;-75
2022/12/19 11:47:10;;;;;;;16.60;9.85;;;;;;;;;;5078894;28;20079;-81
2022/12/19 11:50:02;;;;;;;20.60;11.38;;;;;;;;;;5077340;28;20487;-67
2022/12/19 11:52:54;;;;;;;21.02;11.50;;;;;;;;;;5077432;28;20028;-67
2022/12/19 11:55:42;;;;;;;20.67;10.55;;;;;;;;;;5076347;28;20461;-67
2022/12/19 11:58:31;;;;;;;19.75;11.73;;;;;;;;;;5077348;28;20467;-69
2022/12/19 12:01:35;;;;;;;19.60;10.93;;;;;;;;;;5076941;28;20040;-68
2022/12/19 12:04:40;;;;;;;21.85;11.13;;;;;;;;;;5079925;28;20033;-75
2022/12/19 12:07:29;;;;;;;23.30;12.18;;;;;;;;;;5077195;28;20028;-76
2022/12/19 12:10:15;;;;;;;20.77;11.18;;;;;;;;;;5076883;28;20028;-76
2022/12/19 12:13:01;;;;;;;30.80;13.30;;;;;;;;;;5076737;28;20490;-75
2022/12/19 12:16:05;;;;;;;16.98;9.65;;;;;;;;;;5062187;28;20036;-75
2022/12/19 12:19:09;;;;;;;18.88;10.05;;;;;;;;;;5078356;28;20032;-75
2022/12/19 12:22:04;;;;;;;22.92;12.07;;;;;;;;;;5077046;28;20054;-72
2022/12/19 12:24:55;;;;;;;24.25;11.85;;;;;;;;;;5062041;28;20043;-67
2022/12/19 12:27:48;;;;;;;21.80;11.70;;;;;;;;;;5076102;28;20128;-72
2022/12/19 12:30:56;;;;;;;25.33;11.75;;;;;;;;;;5077714;28;20134;-73
2022/12/19 12:33:54;;;;;;;21.53;11.27;;;;;;;;;;5061977;28;20028;-72
2022/12/19 12:36:46;;;;;;;21.42;10.77;;;;;;;;;;5080427;28;20070;-72
2022/12/19 12:39:49;;;;;;;19.30;10.75;;;;;;;;;;5076682;28;20028;-72
2022/12/19 12:42:38;;;;;;;20.65;9.52;;;;;;;;;;5077796;28;20037;-76
2022/12/19 12:45:32;;;;;;;24.23;11.88;;;;;;;;;;5078143;28;20115;-75
2022/12/19 12:48:31;;;;;;;18.88;9.68;;;;;;;;;;5076325;28;20471;-77
2022/12/19 12:51:17;;;;;;;18.77;10.77;;;;;;;;;;5077137;28;20531;-74
2022/12/19 12:54:09;;;;;;;22.77;11.68;;;;;;;;;;5076081;28;20032;-74
2022/12/19 12:56:55;;;;;;;18.13;10.70;;;;;;;;;;5060605;28;20524;-74
2022/12/19 12:59:43;;;;;;;21.73;10.32;;;;;;;;;;5075796;28;20067;-76
2022/12/19 13:02:31;;;;;;;20.88;10.43;;;;;;;;;;5075495;28;20544;-71
2022/12/19 13:05:23;;;;;;;20.15;10.23;;;;;;;;;;5060786;28;20100;-71
2022/12/19 13:08:24;;;;;;;21.80;11.10;;;;;;;;;;5077429;28;20059;-71
2022/12/19 13:14:34;;;;;;;16.42;8.93;;;;;;;;;;5076341;28;20036;-71
2022/12/19 13:17:42;;;;;;;20.75;10.32;;;;;;;;;;5076151;28;20082;-67
2022/12/19 13:20:28;;;;;;;20.05;10.18;;;;;;;;;;5076533;28;20391;-68
2022/12/19 13:23:32;;;;;;;23.15;9.63;;;;;;;;;;5060272;28;20060;-68
2022/12/19 13:26:19;;;;;;;24.67;8.95;;;;;;;;;;5060737;28;20364;-68
2022/12/19 13:29:26;;;;;;;18.95;8.85;;;;;;;;;;5075921;28;20033;-67
2022/12/19 13:32:13;;;;;;;14.52;8.10;;;;;;;;;;5075928;28;20032;-68
2022/12/19 13:34:59;;;;;;;15.38;8.50;;;;;;;;;;5076955;28;20025;-68
2022/12/19 13:37:49;;;;;;;16.13;7.93;;;;;;;;;;5076445;28;20032;-68
2022/12/19 13:40:52;;;;;;;15.77;8.02;;;;;;;;;;5079134;28;20219;-70
2022/12/19 13:43:46;;;;;;;30.92;8.90;;;;;;;;;;5074881;28;20040;-71
2022/12/19 13:46:41;;;;;;;15.48;8.93;;;;;;;;;;5075205;28;20219;-69
2022/12/19 13:49:31;;;;;;;18.02;8.77;;;;;;;;;;5075422;28;20040;-69
2022/12/19 13:52:16;;;;;;;;;;;;;;;;;;5075922;28;20033;-69
2022/12/19 13:55:02;;;;;;;15.82;8.30;;;;;;;;;;5074030;28;19916;-73
2022/12/19 13:57:50;;;;;;;18.98;8.45;;;;;;;;;;5075548;28;20067;-75
2022/12/19 14:00:40;;;;;;;13.77;7.50;;;;;;;;;;5074561;28;20107;-75
2022/12/19 14:03:40;;;;;;;17.00;8.55;;;;;;;;;;5075035;28;20060;-75
2022/12/19 14:06:27;;;;;;;15.00;9.00;;;;;;;;;;5075110;28;20036;-74
2022/12/19 14:09:26;;;;;;;17.60;9.05;;;;;;;;;;5075322;28;20028;-75
2022/12/19 14:15:12;;;;;;;16.50;9.23;;;;;;;;;;5076109;28;20025;-68
2022/12/19 14:15:23;;;;;;;16.05;8.65;;;;;;;;;;5079483;28;20032;-73
2022/12/19 14:18:14;;;;;;;14.60;8.50;;;;;;;;;;5075022;28;20479;-73
2022/12/19 14:21:12;;;;;;;16.60;8.65;;;;;;;;;;5075230;28;20043;-74
2022/12/19 14:24:18;;;;;;;19.95;8.80;;;;;;;;;;5075976;28;20081;-74
2022/12/19 14:27:07;;;;;;;14.30;7.60;;;;;;;;;;5074916;28;20400;-73
2022/12/19 14:29:53;;;;;;;19.90;10.13;;;;;;;;;;5075783;28;20115;-73
2022/12/19 14:32:39;;;;;;;19.33;9.32;;;;;;;;;;5074191;28;20040;-69
2022/12/19 14:35:30;;;;;;;17.17;8.88;;;;;;;;;;5074690;28;20111;-83
2022/12/19 14:38:17;;;;;;;15.45;8.40;;;;;;;;;;5075805;28;20021;-83
2022/12/19 14:41:03;;;;;;;17.23;9.60;;;;;;;;;;5074361;28;20537;-81
2022/12/19 14:43:53;;;;;;;17.58;9.55;;;;;;;;;;5075071;28;20028;-83
2022/12/19 14:46:39;;;;;;;17.05;9.05;;;;;;;;;;5079553;28;20096;-84
2022/12/19 14:49:29;;;;;;;15.20;8.32;;;;;;;;;;5075765;28;20032;-69
2022/12/19 14:52:53;;;;;;;15.27;8.13;;;;;;;;;;5074803;28;20391;-74
2022/12/19 14:59:44;;;;;;;21.73;9.57;;;;;;;;;;5076647;28;20033;-75
2022/12/19 15:02:31;;;;;;;15.68;7.90;;;;;;;;;;4996622;28;20062;-75
2022/12/19 15:05:17;;;;;;;16.65;9.15;;;;;;;;;;5078223;28;20028;-75
2022/12/19 15:08:07;;;;;;;14.93;8.65;;;;;;;;;;5078862;28;20040;-75
2022/12/19 15:10:57;;;;;;;18.13;8.75;;;;;;;;;;5077851;28;20044;-75
2022/12/19 15:13:49;;;;;;;16.10;7.50;;;;;;;;;;5078260;28;20032;-75
2022/12/19 15:16:35;;;;;;;23.05;9.13;;;;;;;;;;5079032;28;20035;-75
2022/12/19 15:19:20;;;;;;;19.90;8.75;;;;;;;;;;5083572;28;20032;-76
2022/12/19 15:22:06;;;;;;;22.65;8.63;;;;;;;;;;5079141;28;20029;-75
2022/12/19 15:24:51;;;;;;;20.75;9.48;;;;;;;;;;5063689;28;20068;-75
2022/12/19 15:27:41;;;;;;;16.70;9.25;;;;;;;;;;5079085;28;20040;-72
2022/12/19 15:30:28;;;;;;;17.65;8.82;;;;;;;;;;5078289;28;20326;-67
2022/12/19 15:33:14;;;;;;;17.27;10.02;;;;;;;;;;5078328;28;20391;-69
2022/12/19 15:36:00;;;;;;;18.08;9.88;;;;;;;;;;5077109;28;20036;-69
2022/12/19 15:38:45;;;;;;;20.40;9.35;;;;;;;;;;5078301;28;20093;-66
2022/12/19 15:41:31;;;;;;;19.15;10.07;;;;;;;;;;5062862;28;20298;-66
2022/12/19 15:44:36;;;;;;;18.98;9.82;;;;;;;;;;5076340;28;20108;-71
2022/12/19 15:47:35;;;;;;;19.63;10.13;;;;;;;;;;5077772;28;20024;-74
2022/12/19 15:50:22;;;;;;;23.75;11.88;;;;;;;;;;5063034;28;20227;-74
2022/12/19 15:53:23;;;;;;;16.70;9.85;;;;;;;;;;5080104;28;20032;-74
2022/12/19 15:56:26;;;;;;;22.38;10.18;;;;;;;;;;5063210;28;20479;-74
2022/12/19 15:59:23;;;;;;;19.13;11.40;;;;;;;;;;5076853;28;20036;-74
2022/12/19 16:02:14;;;;;;;25.58;11.43;;;;;;;;;;5078239;28;20029;-74
2022/12/19 16:05:02;;;;;;;19.00;9.95;;;;;;;;;;5061822;28;20028;-69
2022/12/19 16:07:48;;;;;;;21.63;10.73;;;;;;;;;;5077993;28;20039;-74
2022/12/19 16:10:33;;;;;;;23.40;10.55;;;;;;;;;;5077601;28;20037;-74
2022/12/19 16:13:23;;;;;;;21.35;11.45;;;;;;;;;;5078266;28;20025;-75
2022/12/19 16:16:09;;;;;;;21.05;11.10;;;;;;;;;;5062064;28;20068;-74
2022/12/19 16:18:54;;;;;;;22.38;11.32;;;;;;;;;;5076382;28;20044;-74
2022/12/19 16:21:40;;;;;;;20.98;9.60;;;;;;;;;;5077566;28;20439;-72
2022/12/19 16:24:25;;;;;;;21.95;11.57;;;;;;;;;;5080971;28;20063;-74
2022/12/19 16:27:27;;;;;;;18.00;9.35;;;;;;;;;;5079333;28;20040;-74
2022/12/19 16:30:16;;;;;;;16.15;8.27;;;;;;;;;;5077284;28;20032;-73
2022/12/19 16:33:01;;;;;;;26.13;10.83;;;;;;;;;;5077416;28;20082;-73
2022/12/19 16:35:48;;;;;;;24.10;13.02;;;;;;;;;;5076072;28;20080;-73
2022/12/19 16:38:34;;;;;;;22.98;11.80;;;;;;;;;;5075906;28;20024;-73